sensor_id;sensor_type;location;lat;lon;timestamp;temperature;humidity
33837;DHT22;20140;49.356;8.812;2023-04-24T00:00:35;11.10;99.90
33837;DHT22;20140;49.356;8.812;2023-04-24T00:03:01;11.00;99.90
33837;DHT22;20140;49.356;8.812;2023-04-24T00:05:28;11.00;99.90
33837;DHT22;20140;49.356;8.812;2023-04-24T00:07:54;11.00;99.90
33837;DHT22;20140;49.356;8.812;2023-04-24T00:10:20;11.10;99.90
33837;DHT22;20140;49.356;8.812;2023-04-24T00:12:46;11.10;99.90
33837;DHT22;20140;49.356;8.812;2023-04-24T00:15:12;11.00;99.90
33837;DHT22;20140;49.356;8.812;2023-04-24T00:17:37;11.10;99.90
33837;DHT22;20140;49.356;8.812;2023-04-24T00:20:04;11.00;99.90
33837;DHT22;20140;49.356;8.812;2023-04-24T00:22:30;11.00;99.90
33837;DHT22;20140;49.356;8.812;2023-04-24T00:24:56;11.00;99.90
33837;DHT22;20140;49.356;8.812;2023-04-24T00:27:22;11.10;99.90
33837;DHT22;20140;49.356;8.812;2023-04-24T00:29:48;11.10;99.90
33837;DHT22;20140;49.356;8.812;2023-04-24T00:32:14;11.20;99.90
33837;DHT22;20140;49.356;8.812;2023-04-24T00:34:39;11.30;99.90
33837;DHT22;20140;49.356;8.812;2023-04-24T00:37:05;11.30;99.90
33837;DHT22;20140;49.356;8.812;2023-04-24T00:39:31;11.30;99.90
33837;DHT22;20140;49.356;8.812;2023-04-24T00:41:57;11.40;99.90
33837;DHT22;20140;49.356;8.812;2023-04-24T00:44:22;11.40;99.90
33837;DHT22;20140;49.356;8.812;2023-04-24T00:46:49;11.40;99.90
33837;DHT22;20140;49.356;8.812;2023-04-24T00:49:23;11.40;99.90
33837;DHT22;20140;49.356;8.812;2023-04-24T00:51:49;11.40;99.90
33837;DHT22;20140;49.356;8.812;2023-04-24T00:54:16;11.40;99.90
33837;DHT22;20140;49.356;8.812;2023-04-24T00:56:42;11.40;99.90
33837;DHT22;20140;49.356;8.812;2023-04-24T00:59:09;11.40;99.90
33837;DHT22;20140;49.356;8.812;2023-04-24T01:01:35;11.40;99.90
33837;DHT22;20140;49.356;8.812;2023-04-24T01:04:00;11.40;99.90
33837;DHT22;20140;49.356;8.812;2023-04-24T01:06:29;11.40;99.90
33837;DHT22;20140;49.356;8.812;2023-04-24T01:08:57;11.40;99.90
33837;DHT22;20140;49.356;8.812;2023-04-24T01:11:22;11.40;99.90
33837;DHT22;20140;49.356;8.812;2023-04-24T01:13:48;11.40;99.90
33837;DHT22;20140;49.356;8.812;2023-04-24T01:16:16;11.30;99.90
33837;DHT22;20140;49.356;8.812;2023-04-24T01:18:43;11.40;99.90
33837;DHT22;20140;49.356;8.812;2023-04-24T01:21:13;11.40;99.90
33837;DHT22;20140;49.356;8.812;2023-04-24T01:23:39;11.30;99.90
33837;DHT22;20140;49.356;8.812;2023-04-24T01:26:05;11.30;99.90
33837;DHT22;20140;49.356;8.812;2023-04-24T01:28:31;11.30;99.90
33837;DHT22;20140;49.356;8.812;2023-04-24T01:30:57;11.30;99.90
33837;DHT22;20140;49.356;8.812;2023-04-24T01:33:22;11.20;99.90
33837;DHT22;20140;49.356;8.812;2023-04-24T01:35:48;11.30;99.90
33837;DHT22;20140;49.356;8.812;2023-04-24T01:38:14;11.40;99.90
33837;DHT22;20140;49.356;8.812;2023-04-24T01:40:40;11.50;99.90
33837;DHT22;20140;49.356;8.812;2023-04-24T01:43:06;11.50;99.90
33837;DHT22;20140;49.356;8.812;2023-04-24T01:45:31;11.50;99.90
33837;DHT22;20140;49.356;8.812;2023-04-24T01:47:57;11.50;99.90
33837;DHT22;20140;49.356;8.812;2023-04-24T01:50:23;11.50;99.90
33837;DHT22;20140;49.356;8.812;2023-04-24T01:52:49;11.50;99.90
33837;DHT22;20140;49.356;8.812;2023-04-24T01:55:15;11.50;99.90
33837;DHT22;20140;49.356;8.812;2023-04-24T01:57:40;11.50;99.90
33837;DHT22;20140;49.356;8.812;2023-04-24T02:00:06;11.50;99.90
33837;DHT22;20140;49.356;8.812;2023-04-24T02:02:32;11.50;99.90
33837;DHT22;20140;49.356;8.812;2023-04-24T02:04:58;11.60;99.90
33837;DHT22;20140;49.356;8.812;2023-04-24T02:07:24;11.60;99.90
33837;DHT22;20140;49.356;8.812;2023-04-24T02:09:49;11.60;99.90
33837;DHT22;20140;49.356;8.812;2023-04-24T02:12:15;11.60;99.90
33837;DHT22;20140;49.356;8.812;2023-04-24T02:14:42;11.60;99.90
33837;DHT22;20140;49.356;8.812;2023-04-24T02:17:08;11.50;99.90
33837;DHT22;20140;49.356;8.812;2023-04-24T02:19:34;11.60;99.90
33837;DHT22;20140;49.356;8.812;2023-04-24T02:21:59;11.60;99.90
33837;DHT22;20140;49.356;8.812;2023-04-24T02:24:25;11.50;99.90
33837;DHT22;20140;49.356;8.812;2023-04-24T02:26:50;11.50;99.90
33837;DHT22;20140;49.356;8.812;2023-04-24T02:29:16;11.50;99.90
33837;DHT22;20140;49.356;8.812;2023-04-24T02:31:41;11.50;99.90
33837;DHT22;20140;49.356;8.812;2023-04-24T02:34:08;11.50;99.90
33837;DHT22;20140;49.356;8.812;2023-04-24T02:36:34;11.50;99.90
33837;DHT22;20140;49.356;8.812;2023-04-24T02:38:59;11.50;99.90
33837;DHT22;20140;49.356;8.812;2023-04-24T02:41:26;11.40;99.90
33837;DHT22;20140;49.356;8.812;2023-04-24T02:43:56;11.30;99.90
33837;DHT22;20140;49.356;8.812;2023-04-24T02:46:22;11.30;99.90
33837;DHT22;20140;49.356;8.812;2023-04-24T02:48:47;11.20;99.90
33837;DHT22;20140;49.356;8.812;2023-04-24T02:51:12;11.10;99.90
33837;DHT22;20140;49.356;8.812;2023-04-24T02:53:38;11.10;99.90
33837;DHT22;20140;49.356;8.812;2023-04-24T02:56:04;11.10;99.90
33837;DHT22;20140;49.356;8.812;2023-04-24T02:58:29;11.00;99.90
33837;DHT22;20140;49.356;8.812;2023-04-24T03:00:55;11.10;99.90
33837;DHT22;20140;49.356;8.812;2023-04-24T03:03:21;11.10;99.90
33837;DHT22;20140;49.356;8.812;2023-04-24T03:05:47;11.20;99.90
33837;DHT22;20140;49.356;8.812;2023-04-24T03:08:12;11.10;99.90
33837;DHT22;20140;49.356;8.812;2023-04-24T03:10:39;11.10;99.90
33837;DHT22;20140;49.356;8.812;2023-04-24T03:13:05;11.20;99.90
33837;DHT22;20140;49.356;8.812;2023-04-24T03:15:30;11.10;99.90
33837;DHT22;20140;49.356;8.812;2023-04-24T03:17:56;11.20;99.90
33837;DHT22;20140;49.356;8.812;2023-04-24T03:20:22;11.20;99.90
33837;DHT22;20140;49.356;8.812;2023-04-24T03:22:47;11.20;99.90
33837;DHT22;20140;49.356;8.812;2023-04-24T03:25:13;11.20;99.90
33837;DHT22;20140;49.356;8.812;2023-04-24T03:27:38;11.30;99.90
33837;DHT22;20140;49.356;8.812;2023-04-24T03:30:08;11.30;99.90
33837;DHT22;20140;49.356;8.812;2023-04-24T03:32:34;11.20;99.90
33837;DHT22;20140;49.356;8.812;2023-04-24T03:34:59;11.00;99.90
33837;DHT22;20140;49.356;8.812;2023-04-24T03:37:26;10.70;99.90
33837;DHT22;20140;49.356;8.812;2023-04-24T03:39:52;10.40;99.90
33837;DHT22;20140;49.356;8.812;2023-04-24T03:42:17;10.30;99.90
33837;DHT22;20140;49.356;8.812;2023-04-24T03:44:43;10.10;99.90
33837;DHT22;20140;49.356;8.812;2023-04-24T03:47:08;9.90;99.90
33837;DHT22;20140;49.356;8.812;2023-04-24T03:49:34;9.90;99.90
33837;DHT22;20140;49.356;8.812;2023-04-24T03:51:59;9.80;99.90
33837;DHT22;20140;49.356;8.812;2023-04-24T03:54:25;9.70;99.90
33837;DHT22;20140;49.356;8.812;2023-04-24T03:56:51;9.70;99.90
33837;DHT22;20140;49.356;8.812;2023-04-24T03:59:16;9.70;99.90
33837;DHT22;20140;49.356;8.812;2023-04-24T04:01:42;9.60;99.90
33837;DHT22;20140;49.356;8.812;2023-04-24T04:04:07;9.60;99.90
33837;DHT22;20140;49.356;8.812;2023-04-24T04:06:33;9.60;99.90
33837;DHT22;20140;49.356;8.812;2023-04-24T04:09:00;9.60;99.90
33837;DHT22;20140;49.356;8.812;2023-04-24T04:11:25;9.50;99.90
33837;DHT22;20140;49.356;8.812;2023-04-24T04:13:51;9.50;99.90
33837;DHT22;20140;49.356;8.812;2023-04-24T04:16:17;9.50;99.90
33837;DHT22;20140;49.356;8.812;2023-04-24T04:18:43;9.50;99.90
33837;DHT22;20140;49.356;8.812;2023-04-24T04:21:08;9.50;99.90
33837;DHT22;20140;49.356;8.812;2023-04-24T04:23:34;9.50;99.90
33837;DHT22;20140;49.356;8.812;2023-04-24T04:26:00;9.50;99.90
33837;DHT22;20140;49.356;8.812;2023-04-24T04:28:26;9.50;99.90
33837;DHT22;20140;49.356;8.812;2023-04-24T04:30:52;9.50;99.90
33837;DHT22;20140;49.356;8.812;2023-04-24T04:33:21;9.50;99.90
33837;DHT22;20140;49.356;8.812;2023-04-24T04:35:47;9.40;99.90
33837;DHT22;20140;49.356;8.812;2023-04-24T04:38:17;9.40;99.90
33837;DHT22;20140;49.356;8.812;2023-04-24T04:40:43;9.40;99.90
33837;DHT22;20140;49.356;8.812;2023-04-24T04:43:09;9.40;99.90
33837;DHT22;20140;49.356;8.812;2023-04-24T04:45:35;9.40;99.90
33837;DHT22;20140;49.356;8.812;2023-04-24T04:48:00;9.30;99.90
33837;DHT22;20140;49.356;8.812;2023-04-24T04:50:27;9.30;99.90
33837;DHT22;20140;49.356;8.812;2023-04-24T04:52:52;9.30;99.90
33837;DHT22;20140;49.356;8.812;2023-04-24T04:55:18;9.30;99.90
33837;DHT22;20140;49.356;8.812;2023-04-24T04:57:45;9.30;99.90
33837;DHT22;20140;49.356;8.812;2023-04-24T05:00:11;9.30;99.90
33837;DHT22;20140;49.356;8.812;2023-04-24T05:02:37;9.30;99.90
33837;DHT22;20140;49.356;8.812;2023-04-24T05:05:03;9.20;99.90
33837;DHT22;20140;49.356;8.812;2023-04-24T05:07:29;9.20;99.90
33837;DHT22;20140;49.356;8.812;2023-04-24T05:09:54;9.20;99.90
33837;DHT22;20140;49.356;8.812;2023-04-24T05:12:20;9.20;99.90
33837;DHT22;20140;49.356;8.812;2023-04-24T05:14:45;9.20;99.90
33837;DHT22;20140;49.356;8.812;2023-04-24T05:17:11;9.20;99.90
33837;DHT22;20140;49.356;8.812;2023-04-24T05:19:36;9.20;99.90
33837;DHT22;20140;49.356;8.812;2023-04-24T05:22:03;9.20;99.90
33837;DHT22;20140;49.356;8.812;2023-04-24T05:24:34;9.20;99.90
33837;DHT22;20140;49.356;8.812;2023-04-24T05:27:00;9.20;99.90
33837;DHT22;20140;49.356;8.812;2023-04-24T05:29:27;9.30;99.90
33837;DHT22;20140;49.356;8.812;2023-04-24T05:31:53;9.30;99.90
33837;DHT22;20140;49.356;8.812;2023-04-24T05:34:18;9.40;99.90
33837;DHT22;20140;49.356;8.812;2023-04-24T05:36:44;9.40;99.90
33837;DHT22;20140;49.356;8.812;2023-04-24T05:39:10;9.50;99.90
33837;DHT22;20140;49.356;8.812;2023-04-24T05:41:35;9.50;99.90
33837;DHT22;20140;49.356;8.812;2023-04-24T05:44:01;9.40;99.90
33837;DHT22;20140;49.356;8.812;2023-04-24T05:46:26;9.50;99.90
33837;DHT22;20140;49.356;8.812;2023-04-24T05:48:52;9.60;99.90
33837;DHT22;20140;49.356;8.812;2023-04-24T05:51:17;9.70;99.90
33837;DHT22;20140;49.356;8.812;2023-04-24T05:53:43;9.70;99.90
33837;DHT22;20140;49.356;8.812;2023-04-24T05:56:08;9.80;99.90
33837;DHT22;20140;49.356;8.812;2023-04-24T05:58:34;9.90;99.90
33837;DHT22;20140;49.356;8.812;2023-04-24T06:00:59;9.90;99.90
33837;DHT22;20140;49.356;8.812;2023-04-24T06:03:26;9.90;99.90
33837;DHT22;20140;49.356;8.812;2023-04-24T06:05:52;9.90;99.90
33837;DHT22;20140;49.356;8.812;2023-04-24T06:08:18;10.00;99.90
33837;DHT22;20140;49.356;8.812;2023-04-24T06:10:44;10.00;99.90
33837;DHT22;20140;49.356;8.812;2023-04-24T06:13:09;10.00;99.90
33837;DHT22;20140;49.356;8.812;2023-04-24T06:15:35;10.10;99.90
33837;DHT22;20140;49.356;8.812;2023-04-24T06:18:00;10.20;99.90
33837;DHT22;20140;49.356;8.812;2023-04-24T06:20:26;10.40;99.90
33837;DHT22;20140;49.356;8.812;2023-04-24T06:22:52;10.50;99.90
33837;DHT22;20140;49.356;8.812;2023-04-24T06:25:18;10.50;99.90
33837;DHT22;20140;49.356;8.812;2023-04-24T06:27:44;10.30;99.90
33837;DHT22;20140;49.356;8.812;2023-04-24T06:30:10;10.30;99.90
33837;DHT22;20140;49.356;8.812;2023-04-24T06:32:36;10.20;99.90
33837;DHT22;20140;49.356;8.812;2023-04-24T06:35:01;10.20;99.90
33837;DHT22;20140;49.356;8.812;2023-04-24T06:37:27;10.20;99.90
33837;DHT22;20140;49.356;8.812;2023-04-24T06:39:53;10.10;99.90
33837;DHT22;20140;49.356;8.812;2023-04-24T06:42:18;10.10;99.90
33837;DHT22;20140;49.356;8.812;2023-04-24T06:44:46;10.20;99.90
33837;DHT22;20140;49.356;8.812;2023-04-24T06:47:11;10.20;99.90
33837;DHT22;20140;49.356;8.812;2023-04-24T06:49:39;10.20;99.90
33837;DHT22;20140;49.356;8.812;2023-04-24T06:52:05;10.10;99.90
33837;DHT22;20140;49.356;8.812;2023-04-24T06:54:32;10.10;99.90
33837;DHT22;20140;49.356;8.812;2023-04-24T06:57:00;10.10;99.90
33837;DHT22;20140;49.356;8.812;2023-04-24T06:59:27;10.20;99.90
33837;DHT22;20140;49.356;8.812;2023-04-24T07:01:53;10.20;99.90
33837;DHT22;20140;49.356;8.812;2023-04-24T07:04:19;10.30;99.90
33837;DHT22;20140;49.356;8.812;2023-04-24T07:06:48;10.30;99.90
33837;DHT22;20140;49.356;8.812;2023-04-24T07:09:14;10.30;99.90
33837;DHT22;20140;49.356;8.812;2023-04-24T07:11:41;10.30;99.90
33837;DHT22;20140;49.356;8.812;2023-04-24T07:14:07;10.30;99.90
33837;DHT22;20140;49.356;8.812;2023-04-24T07:16:33;10.30;99.90
33837;DHT22;20140;49.356;8.812;2023-04-24T07:18:59;10.40;99.90
33837;DHT22;20140;49.356;8.812;2023-04-24T07:21:24;10.40;99.90
33837;DHT22;20140;49.356;8.812;2023-04-24T07:23:51;10.40;99.90
33837;DHT22;20140;49.356;8.812;2023-04-24T07:26:17;10.30;99.90
33837;DHT22;20140;49.356;8.812;2023-04-24T07:28:43;10.30;99.90
33837;DHT22;20140;49.356;8.812;2023-04-24T07:31:09;10.20;99.90
33837;DHT22;20140;49.356;8.812;2023-04-24T07:33:35;10.10;99.90
33837;DHT22;20140;49.356;8.812;2023-04-24T07:36:01;9.90;99.90
33837;DHT22;20140;49.356;8.812;2023-04-24T07:38:29;9.70;99.90
33837;DHT22;20140;49.356;8.812;2023-04-24T07:40:55;9.60;99.90
33837;DHT22;20140;49.356;8.812;2023-04-24T07:43:20;9.40;99.90
33837;DHT22;20140;49.356;8.812;2023-04-24T07:45:46;9.30;99.90
33837;DHT22;20140;49.356;8.812;2023-04-24T07:48:12;9.30;99.90
33837;DHT22;20140;49.356;8.812;2023-04-24T07:50:40;9.30;99.90
33837;DHT22;20140;49.356;8.812;2023-04-24T07:53:05;9.30;99.90
33837;DHT22;20140;49.356;8.812;2023-04-24T07:55:31;9.30;99.90
33837;DHT22;20140;49.356;8.812;2023-04-24T07:57:56;9.40;99.90
33837;DHT22;20140;49.356;8.812;2023-04-24T08:00:22;9.40;99.90
33837;DHT22;20140;49.356;8.812;2023-04-24T08:02:47;9.60;99.90
33837;DHT22;20140;49.356;8.812;2023-04-24T08:05:13;9.70;99.90
33837;DHT22;20140;49.356;8.812;2023-04-24T08:07:38;9.70;99.90
33837;DHT22;20140;49.356;8.812;2023-04-24T08:10:04;9.70;99.90
33837;DHT22;20140;49.356;8.812;2023-04-24T08:12:30;9.80;99.90
33837;DHT22;20140;49.356;8.812;2023-04-24T08:14:56;9.90;99.90
33837;DHT22;20140;49.356;8.812;2023-04-24T08:17:21;10.00;99.90
33837;DHT22;20140;49.356;8.812;2023-04-24T08:19:47;10.10;99.90
33837;DHT22;20140;49.356;8.812;2023-04-24T08:22:14;10.20;99.90
33837;DHT22;20140;49.356;8.812;2023-04-24T08:24:40;10.20;99.90
33837;DHT22;20140;49.356;8.812;2023-04-24T08:27:05;10.30;99.90
33837;DHT22;20140;49.356;8.812;2023-04-24T08:29:31;10.40;99.90
33837;DHT22;20140;49.356;8.812;2023-04-24T08:31:57;10.40;99.90
33837;DHT22;20140;49.356;8.812;2023-04-24T08:34:23;10.50;99.90
33837;DHT22;20140;49.356;8.812;2023-04-24T08:36:48;10.70;99.90
33837;DHT22;20140;49.356;8.812;2023-04-24T08:39:14;10.70;99.90
33837;DHT22;20140;49.356;8.812;2023-04-24T08:41:42;10.70;99.90
33837;DHT22;20140;49.356;8.812;2023-04-24T08:44:12;10.90;99.90
33837;DHT22;20140;49.356;8.812;2023-04-24T08:46:39;11.10;99.90
33837;DHT22;20140;49.356;8.812;2023-04-24T08:49:05;11.00;99.90
33837;DHT22;20140;49.356;8.812;2023-04-24T08:51:31;11.00;99.90
33837;DHT22;20140;49.356;8.812;2023-04-24T08:53:57;10.70;99.90
33837;DHT22;20140;49.356;8.812;2023-04-24T08:56:23;10.70;99.90
33837;DHT22;20140;49.356;8.812;2023-04-24T08:58:53;10.70;99.90
33837;DHT22;20140;49.356;8.812;2023-04-24T09:01:19;10.60;99.90
33837;DHT22;20140;49.356;8.812;2023-04-24T09:03:48;10.60;99.90
33837;DHT22;20140;49.356;8.812;2023-04-24T09:06:14;10.70;99.90
33837;DHT22;20140;49.356;8.812;2023-04-24T09:08:42;10.80;99.90
33837;DHT22;20140;49.356;8.812;2023-04-24T09:11:09;11.00;99.90
33837;DHT22;20140;49.356;8.812;2023-04-24T09:13:35;11.10;99.90
33837;DHT22;20140;49.356;8.812;2023-04-24T09:16:00;11.10;99.90
33837;DHT22;20140;49.356;8.812;2023-04-24T09:18:26;11.20;99.90
33837;DHT22;20140;49.356;8.812;2023-04-24T09:21:07;11.20;99.90
33837;DHT22;20140;49.356;8.812;2023-04-24T09:23:32;11.40;99.90
33837;DHT22;20140;49.356;8.812;2023-04-24T09:26:00;11.70;99.90
33837;DHT22;20140;49.356;8.812;2023-04-24T09:28:31;11.60;99.90
33837;DHT22;20140;49.356;8.812;2023-04-24T09:33:32;11.60;99.90
33837;DHT22;20140;49.356;8.812;2023-04-24T09:35:58;11.60;99.90
33837;DHT22;20140;49.356;8.812;2023-04-24T09:38:31;11.70;99.90
33837;DHT22;20140;49.356;8.812;2023-04-24T09:41:01;11.80;99.90
33837;DHT22;20140;49.356;8.812;2023-04-24T09:43:28;11.60;99.90
33837;DHT22;20140;49.356;8.812;2023-04-24T09:45:56;11.60;99.90
33837;DHT22;20140;49.356;8.812;2023-04-24T09:48:36;11.50;99.90
33837;DHT22;20140;49.356;8.812;2023-04-24T09:51:04;11.50;99.90
33837;DHT22;20140;49.356;8.812;2023-04-24T09:53:32;11.60;99.90
33837;DHT22;20140;49.356;8.812;2023-04-24T09:56:08;11.40;99.90
33837;DHT22;20140;49.356;8.812;2023-04-24T09:58:35;11.40;99.90
33837;DHT22;20140;49.356;8.812;2023-04-24T10:01:01;11.50;99.90
33837;DHT22;20140;49.356;8.812;2023-04-24T10:03:30;11.60;99.90
33837;DHT22;20140;49.356;8.812;2023-04-24T10:06:02;11.60;99.90
33837;DHT22;20140;49.356;8.812;2023-04-24T10:08:33;11.70;99.90
33837;DHT22;20140;49.356;8.812;2023-04-24T10:11:00;11.80;99.90
33837;DHT22;20140;49.356;8.812;2023-04-24T10:13:26;11.70;99.90
33837;DHT22;20140;49.356;8.812;2023-04-24T10:15:51;12.00;99.90
33837;DHT22;20140;49.356;8.812;2023-04-24T10:18:17;11.90;99.90
33837;DHT22;20140;49.356;8.812;2023-04-24T10:20:46;11.80;99.90
33837;DHT22;20140;49.356;8.812;2023-04-24T10:23:12;11.70;99.90
33837;DHT22;20140;49.356;8.812;2023-04-24T10:25:38;11.50;99.90
33837;DHT22;20140;49.356;8.812;2023-04-24T10:28:04;11.50;99.90
33837;DHT22;20140;49.356;8.812;2023-04-24T10:30:32;11.40;99.90
33837;DHT22;20140;49.356;8.812;2023-04-24T10:33:02;11.30;99.90
33837;DHT22;20140;49.356;8.812;2023-04-24T10:35:31;11.30;99.90
33837;DHT22;20140;49.356;8.812;2023-04-24T10:37:59;11.40;99.90
33837;DHT22;20140;49.356;8.812;2023-04-24T10:40:31;11.20;99.90
33837;DHT22;20140;49.356;8.812;2023-04-24T10:42:58;11.10;99.90
33837;DHT22;20140;49.356;8.812;2023-04-24T10:45:24;11.00;99.90
33837;DHT22;20140;49.356;8.812;2023-04-24T10:48:04;11.10;99.90
33837;DHT22;20140;49.356;8.812;2023-04-24T10:50:50;11.00;99.90
33837;DHT22;20140;49.356;8.812;2023-04-24T10:53:18;11.10;99.90
33837;DHT22;20140;49.356;8.812;2023-04-24T10:58:10;11.00;99.90
33837;DHT22;20140;49.356;8.812;2023-04-24T11:00:38;10.80;99.90
33837;DHT22;20140;49.356;8.812;2023-04-24T11:03:26;10.90;99.90
33837;DHT22;20140;49.356;8.812;2023-04-24T11:06:04;10.80;99.90
33837;DHT22;20140;49.356;8.812;2023-04-24T11:08:45;10.90;99.90
33837;DHT22;20140;49.356;8.812;2023-04-24T11:11:13;11.00;99.90
33837;DHT22;20140;49.356;8.812;2023-04-24T11:18:59;11.30;99.90
33837;DHT22;20140;49.356;8.812;2023-04-24T11:21:24;11.20;99.90
33837;DHT22;20140;49.356;8.812;2023-04-24T11:23:51;11.20;99.90
33837;DHT22;20140;49.356;8.812;2023-04-24T11:26:19;11.60;99.90
33837;DHT22;20140;49.356;8.812;2023-04-24T11:28:50;11.80;99.90
33837;DHT22;20140;49.356;8.812;2023-04-24T11:31:38;11.70;99.90
33837;DHT22;20140;49.356;8.812;2023-04-24T11:34:08;11.40;99.90
33837;DHT22;20140;49.356;8.812;2023-04-24T11:36:35;11.30;99.90
33837;DHT22;20140;49.356;8.812;2023-04-24T11:39:01;11.20;99.90
33837;DHT22;20140;49.356;8.812;2023-04-24T11:41:28;11.20;99.90
33837;DHT22;20140;49.356;8.812;2023-04-24T11:43:54;11.30;99.90
33837;DHT22;20140;49.356;8.812;2023-04-24T11:46:30;11.30;99.90
33837;DHT22;20140;49.356;8.812;2023-04-24T11:48:57;11.30;99.90
33837;DHT22;20140;49.356;8.812;2023-04-24T11:51:23;11.30;99.90
33837;DHT22;20140;49.356;8.812;2023-04-24T11:53:51;11.40;99.90
33837;DHT22;20140;49.356;8.812;2023-04-24T11:56:21;11.40;99.90
33837;DHT22;20140;49.356;8.812;2023-04-24T11:58:47;11.50;99.90
33837;DHT22;20140;49.356;8.812;2023-04-24T12:01:13;11.60;99.90
33837;DHT22;20140;49.356;8.812;2023-04-24T12:03:38;11.70;99.90
33837;DHT22;20140;49.356;8.812;2023-04-24T12:06:07;11.90;99.90
33837;DHT22;20140;49.356;8.812;2023-04-24T12:08:33;12.00;99.90
33837;DHT22;20140;49.356;8.812;2023-04-24T12:11:04;11.80;99.90
33837;DHT22;20140;49.356;8.812;2023-04-24T12:13:30;11.80;99.90
33837;DHT22;20140;49.356;8.812;2023-04-24T12:15:57;11.90;99.90
33837;DHT22;20140;49.356;8.812;2023-04-24T12:18:23;11.90;99.90
33837;DHT22;20140;49.356;8.812;2023-04-24T12:20:49;11.90;99.90
33837;DHT22;20140;49.356;8.812;2023-04-24T12:23:15;11.70;99.90
33837;DHT22;20140;49.356;8.812;2023-04-24T12:25:40;11.60;99.90
33837;DHT22;20140;49.356;8.812;2023-04-24T12:30:35;11.60;99.90
33837;DHT22;20140;49.356;8.812;2023-04-24T12:33:02;11.60;99.90
33837;DHT22;20140;49.356;8.812;2023-04-24T12:35:30;11.60;99.90
33837;DHT22;20140;49.356;8.812;2023-04-24T12:38:12;11.50;99.90
33837;DHT22;20140;49.356;8.812;2023-04-24T12:40:38;11.60;99.90
33837;DHT22;20140;49.356;8.812;2023-04-24T12:43:17;11.70;99.90
33837;DHT22;20140;49.356;8.812;2023-04-24T12:45:43;11.90;99.90
33837;DHT22;20140;49.356;8.812;2023-04-24T12:48:10;12.20;99.90
33837;DHT22;20140;49.356;8.812;2023-04-24T12:50:35;12.30;99.90
33837;DHT22;20140;49.356;8.812;2023-04-24T12:53:01;12.40;99.90
33837;DHT22;20140;49.356;8.812;2023-04-24T12:55:26;12.70;99.90
33837;DHT22;20140;49.356;8.812;2023-04-24T12:57:52;12.80;99.90
33837;DHT22;20140;49.356;8.812;2023-04-24T13:00:20;13.20;99.90
33837;DHT22;20140;49.356;8.812;2023-04-24T13:02:46;13.30;99.90
33837;DHT22;20140;49.356;8.812;2023-04-24T13:05:11;13.80;99.90
33837;DHT22;20140;49.356;8.812;2023-04-24T13:07:39;13.10;99.90
33837;DHT22;20140;49.356;8.812;2023-04-24T13:10:05;13.60;99.90
33837;DHT22;20140;49.356;8.812;2023-04-24T13:12:31;14.20;99.90
33837;DHT22;20140;49.356;8.812;2023-04-24T13:14:57;14.50;99.90
33837;DHT22;20140;49.356;8.812;2023-04-24T13:17:24;14.60;99.90
33837;DHT22;20140;49.356;8.812;2023-04-24T13:19:50;14.60;99.90
33837;DHT22;20140;49.356;8.812;2023-04-24T13:22:17;14.90;99.90
33837;DHT22;20140;49.356;8.812;2023-04-24T13:24:44;15.30;99.90
33837;DHT22;20140;49.356;8.812;2023-04-24T13:27:10;14.60;99.90
33837;DHT22;20140;49.356;8.812;2023-04-24T13:29:36;14.60;99.90
33837;DHT22;20140;49.356;8.812;2023-04-24T13:32:02;14.90;99.90
33837;DHT22;20140;49.356;8.812;2023-04-24T13:34:28;15.60;99.90
33837;DHT22;20140;49.356;8.812;2023-04-24T13:36:55;15.30;99.90
33837;DHT22;20140;49.356;8.812;2023-04-24T13:39:22;14.20;99.90
33837;DHT22;20140;49.356;8.812;2023-04-24T13:41:48;13.90;99.90
33837;DHT22;20140;49.356;8.812;2023-04-24T13:44:14;14.20;99.90
33837;DHT22;20140;49.356;8.812;2023-04-24T13:46:41;14.20;99.90
33837;DHT22;20140;49.356;8.812;2023-04-24T13:49:07;14.10;99.90
33837;DHT22;20140;49.356;8.812;2023-04-24T13:51:32;15.00;99.90
33837;DHT22;20140;49.356;8.812;2023-04-24T13:53:58;15.70;99.90
33837;DHT22;20140;49.356;8.812;2023-04-24T13:56:24;16.30;99.90
33837;DHT22;20140;49.356;8.812;2023-04-24T13:58:52;15.40;99.90
33837;DHT22;20140;49.356;8.812;2023-04-24T14:01:19;16.30;99.90
33837;DHT22;20140;49.356;8.812;2023-04-24T14:03:46;15.40;99.90
33837;DHT22;20140;49.356;8.812;2023-04-24T14:06:12;14.30;99.90
33837;DHT22;20140;49.356;8.812;2023-04-24T14:08:37;13.70;99.90
33837;DHT22;20140;49.356;8.812;2023-04-24T14:11:03;13.80;99.90
33837;DHT22;20140;49.356;8.812;2023-04-24T14:13:29;13.80;99.90
33837;DHT22;20140;49.356;8.812;2023-04-24T14:15:54;13.60;99.90
33837;DHT22;20140;49.356;8.812;2023-04-24T14:18:20;13.20;99.90
33837;DHT22;20140;49.356;8.812;2023-04-24T14:20:45;13.00;99.90
33837;DHT22;20140;49.356;8.812;2023-04-24T14:23:11;12.90;99.90
33837;DHT22;20140;49.356;8.812;2023-04-24T14:25:36;12.80;99.90
33837;DHT22;20140;49.356;8.812;2023-04-24T14:28:02;12.80;99.90
33837;DHT22;20140;49.356;8.812;2023-04-24T14:30:28;12.70;99.90
33837;DHT22;20140;49.356;8.812;2023-04-24T14:32:53;12.70;99.90
33837;DHT22;20140;49.356;8.812;2023-04-24T14:35:19;12.70;99.90
33837;DHT22;20140;49.356;8.812;2023-04-24T14:37:44;12.80;99.90
33837;DHT22;20140;49.356;8.812;2023-04-24T14:40:10;12.80;99.90
33837;DHT22;20140;49.356;8.812;2023-04-24T14:42:36;12.90;99.90
33837;DHT22;20140;49.356;8.812;2023-04-24T14:45:02;12.90;99.90
33837;DHT22;20140;49.356;8.812;2023-04-24T14:47:27;12.90;99.90
33837;DHT22;20140;49.356;8.812;2023-04-24T14:49:54;12.70;99.90
33837;DHT22;20140;49.356;8.812;2023-04-24T14:52:20;12.80;99.90
33837;DHT22;20140;49.356;8.812;2023-04-24T14:54:45;12.80;99.90
33837;DHT22;20140;49.356;8.812;2023-04-24T14:57:11;13.30;99.90
33837;DHT22;20140;49.356;8.812;2023-04-24T14:59:36;13.50;99.90
33837;DHT22;20140;49.356;8.812;2023-04-24T15:02:02;13.10;99.90
33837;DHT22;20140;49.356;8.812;2023-04-24T15:04:28;12.90;99.90
33837;DHT22;20140;49.356;8.812;2023-04-24T15:06:55;12.70;99.90
33837;DHT22;20140;49.356;8.812;2023-04-24T15:09:22;12.60;99.90
33837;DHT22;20140;49.356;8.812;2023-04-24T15:11:48;12.50;99.90
33837;DHT22;20140;49.356;8.812;2023-04-24T15:14:14;12.40;99.90
33837;DHT22;20140;49.356;8.812;2023-04-24T15:16:40;12.40;99.90
33837;DHT22;20140;49.356;8.812;2023-04-24T15:19:05;12.50;99.90
33837;DHT22;20140;49.356;8.812;2023-04-24T15:21:31;12.40;99.90
33837;DHT22;20140;49.356;8.812;2023-04-24T15:23:57;12.60;99.90
33837;DHT22;20140;49.356;8.812;2023-04-24T15:26:23;13.40;99.90
33837;DHT22;20140;49.356;8.812;2023-04-24T15:28:49;13.50;99.90
33837;DHT22;20140;49.356;8.812;2023-04-24T15:31:15;13.50;99.90
33837;DHT22;20140;49.356;8.812;2023-04-24T15:33:40;13.50;99.90
33837;DHT22;20140;49.356;8.812;2023-04-24T15:36:06;13.00;99.90
33837;DHT22;20140;49.356;8.812;2023-04-24T15:38:32;12.90;99.90
33837;DHT22;20140;49.356;8.812;2023-04-24T15:40:57;12.60;99.90
33837;DHT22;20140;49.356;8.812;2023-04-24T15:43:23;12.50;99.90